Terminal Aerodrome Forecast
Issued by NWS

Home | Current Version | Previous Version | Text Only | Print | Product List | Glossary On
Versions: 1 2 3 4 5 6 7 8 9 10 11 12 13 14 15
000
FTUS43 KGRB 221200 AAA
TAFMTW
TAF AMD
KMTW 221231Z 2213/2312 17012G18KT 6SM BR BKN015 OVC025
      TEMPO 2213/2216 4SM -RASN BR
     FM221600 14011G17KT P6SM SCT020 OVC035
     FM221900 13012G20KT P6SM SCT015 OVC025
      TEMPO 2219/2223 4SM -RASN BKN015
     FM222300 11013G20KT 4SM -RASN BKN012 OVC020
      TEMPO 2300/2304 2SM -RASN BR OVC008
     FM230400 08013G21KT 2SM RA BR OVC006=

USA.gov is the U.S. government's official web portal to all federal, state and local government web resources and services.